Nellis Air Force Base
KLSV : now visible

Airfield :











YOU CAN JOIN US ON...

 
LOGIN :

Register | Disclaimer

   EN    FR    IT 

 









Legend :    VFR   Marginal VFR   IFR   Intensive IFR   Very Intensive IFR
Visi :
Ceiling :
>= 8 km
>= 3000ft
5 to 8 km
1000 to 3000 ft
1500m to 5 km
500 to 1000 ft
800 to 1500m
200 to 500 ft
< 800m
< 200 ft
Symbols :   Thunderstorms  Fog  Heavy snow  Heavy precipitations  Wind > 20 kt






- Airport Elevation : 1870 ft


KLSV - Nellis Air Force Base

CURRENT METAR :
  • 011358Z AUTO 00000KT 10SM CLR 29/17 A3005 RMK AO2 SLP150 T02900168 $

EXPIRED METARs :
  • 011258Z AUTO 06005KT 10SM CLR 28/16 A3004 RMK AO2 SLP147 T02820158 $
  • 011158Z AUTO 07006KT 10SM CLR 29/16 A3002 RMK AO2 SLP140 T02910156 10314 20290 53005 $

TAF TAF KLSV
Valid from the 01 at 07:00 until the 02 at 13:00 UTC


010700Z 0107/0213 05009KT 9999 SCT150 QNH3001INS
BECMG 0118/0119 20010G15KT 9999 VCTS SCT110CB QNH3004INS
TEMPO 0119/0124 VRB15G28KT 520009
BECMG 0203/0204 23009KT 9999 NSW FEW160 FEW220 QNH2994INS TX37/0123Z TN26/0111Z LAST NO AMDS AFT 0107 NEXT 0207
KZLA FIR / North America



MET'MAP, your aeronautical weather chart ! - Copyright ORBIFLY December 2007 - Disclaimer

ORBIFLY MET'MAP TEAM :

Programming & Development : Alexandra Zaïnal
Concept & original design : Baudouin d'Aumeries
Assistance for programming : Marc-Olivier Méhu
Technical & hardware support : Manuel Goepfert

Contact : metmap@orbifly.com




SOURCES & CREDITS :

   NOAA       Earth
Advisory